Time;durP1;ratioP1;P1;durP2;ratioP2;P2;SDS_P1;SDS_P2;PMS_P1;PMS_P2;Temp;Humidity;BMP_temperature;BMP_pressure;BME280_temperature;BME280_humidity;BME280_pressure;Samples;Min_cycle;Max_cycle;Signal;HPM_P1;HPM_P2
2022/01/31 00:01:14;;;;;;;21.98;5.53;;;4.50;99.90;;;;;;5085615;28;20048;-66
2022/01/31 00:03:39;;;;;;;19.98;4.57;;;4.50;99.90;;;;;;5085387;28;20048;-65
2022/01/31 00:06:05;;;;;;;27.08;5.13;;;4.50;99.90;;;;;;5104088;28;20040;-66
2022/01/31 00:08:31;;;;;;;22.08;5.00;;;4.80;99.90;;;;;;5103511;28;20247;-65
2022/01/31 00:10:57;;;;;;;27.77;5.78;;;4.60;99.90;;;;;;5085706;28;20048;-65
2022/01/31 00:13:32;;;;;;;22.00;5.18;;;4.50;99.90;;;;;;5103760;28;20080;-66
2022/01/31 00:15:58;;;;;;;21.45;5.55;;;4.50;99.90;;;;;;5085500;28;20056;-66
2022/01/31 00:18:24;;;;;;;21.38;5.40;;;4.60;99.90;;;;;;5103162;28;20140;-65
2022/01/31 00:20:51;;;;;;;29.90;6.63;;;4.50;99.90;;;;;;5097666;28;20107;-65
2022/01/31 00:23:16;;;;;;;20.55;5.07;;;4.50;99.90;;;;;;5085084;28;20078;-65
2022/01/31 00:25:42;;;;;;;20.25;6.07;;;4.50;99.90;;;;;;5105088;28;20048;-65
2022/01/31 00:28:08;;;;;;;20.05;5.80;;;4.70;99.90;;;;;;5106680;28;20044;-65
2022/01/31 00:30:34;;;;;;;23.27;5.75;;;4.70;99.90;;;;;;5107580;28;20055;-65
2022/01/31 00:32:59;;;;;;;22.10;6.25;;;4.70;99.90;;;;;;5090508;28;20039;-66
2022/01/31 00:35:26;;;;;;;25.38;6.30;;;4.60;99.90;;;;;;5089670;28;20036;-65
2022/01/31 00:37:52;;;;;;;26.23;6.18;;;4.60;99.90;;;;;;5107720;28;20682;-65
2022/01/31 00:40:19;;;;;;;19.85;5.22;;;4.80;99.90;;;;;;5106254;28;20040;-65
2022/01/31 00:42:45;;;;;;;21.58;5.60;;;5.10;99.90;;;;;;5107437;28;20052;-65
2022/01/31 00:45:23;;;;;;;22.50;6.40;;;5.00;99.90;;;;;;5089668;28;20047;-65
2022/01/31 00:47:59;;;;;;;17.77;5.53;;;4.80;99.90;;;;;;5107348;28;20040;-65
2022/01/31 00:50:25;;;;;;;24.15;7.40;;;4.60;99.90;;;;;;5086640;28;20072;-65
2022/01/31 00:52:51;;;;;;;20.88;6.65;;;4.60;99.90;;;;;;5088949;28;20047;-65
2022/01/31 00:55:17;;;;;;;21.73;6.82;;;4.40;99.90;;;;;;5113308;28;20044;-65
2022/01/31 00:57:43;;;;;;;24.70;7.13;;;4.60;99.90;;;;;;5088987;28;20071;-65
2022/01/31 01:00:11;;;;;;;21.52;7.10;;;4.50;99.90;;;;;;5088665;28;20102;-65
2022/01/31 01:02:37;;;;;;;23.60;6.82;;;4.50;99.90;;;;;;5107467;28;20129;-65
2022/01/31 01:05:04;;;;;;;27.35;7.13;;;4.70;99.90;;;;;;5108335;28;20047;-65
2022/01/31 01:07:29;;;;;;;19.45;6.60;;;4.60;99.90;;;;;;5107486;28;20040;-65
2022/01/31 01:09:56;;;;;;;27.00;7.28;;;4.50;99.90;;;;;;5089189;28;20108;-65
2022/01/31 01:12:22;;;;;;;19.27;7.18;;;4.60;99.90;;;;;;5088396;28;20056;-66
2022/01/31 01:14:49;;;;;;;21.08;7.18;;;4.50;99.90;;;;;;5106920;28;20048;-65
2022/01/31 01:17:15;;;;;;;21.20;6.25;;;4.40;99.90;;;;;;5088295;28;20040;-65
2022/01/31 01:19:41;;;;;;;20.00;7.15;;;4.50;99.90;;;;;;5071054;28;20048;-66
2022/01/31 01:22:07;;;;;;;22.88;7.07;;;4.50;99.90;;;;;;5082151;28;20074;-65
2022/01/31 01:24:33;;;;;;;20.90;6.45;;;4.70;99.90;;;;;;5088087;28;20048;-65
2022/01/31 01:26:59;;;;;;;18.50;6.10;;;4.80;99.90;;;;;;5087823;28;20507;-65
2022/01/31 01:29:24;;;;;;;21.20;7.63;;;4.70;99.90;;;;;;5106384;28;20069;-65
2022/01/31 01:31:51;;;;;;;17.48;6.53;;;4.80;99.90;;;;;;5087263;28;20055;-65
2022/01/31 01:34:17;;;;;;;21.00;7.65;;;4.70;99.90;;;;;;5088615;28;20050;-65
2022/01/31 01:36:45;;;;;;;25.25;9.20;;;4.60;99.90;;;;;;5100343;28;20514;-65
2022/01/31 01:39:11;;;;;;;20.88;7.78;;;4.40;99.90;;;;;;5106046;28;20453;-66
2022/01/31 01:41:37;;;;;;;31.33;8.57;;;4.50;99.90;;;;;;5088356;28;20105;-65
2022/01/31 01:44:03;;;;;;;23.27;8.32;;;4.50;99.90;;;;;;5087724;28;20131;-65
2022/01/31 01:46:28;;;;;;;21.25;8.85;;;4.40;99.90;;;;;;5089375;28;20081;-65
2022/01/31 01:48:54;;;;;;;26.77;9.63;;;4.30;99.90;;;;;;5086379;28;20051;-65
2022/01/31 01:51:20;;;;;;;22.88;9.75;;;4.10;99.90;;;;;;5087955;28;20103;-65
2022/01/31 01:53:46;;;;;;;26.38;10.18;;;4.10;99.90;;;;;;5088836;28;20051;-65
2022/01/31 01:56:13;;;;;;;27.42;12.30;;;3.90;99.90;;;;;;5106248;28;20044;-65
2022/01/31 01:58:42;;;;;;;24.80;10.73;;;3.70;99.90;;;;;;5105725;28;20051;-65
2022/01/31 02:01:10;;;;;;;23.65;11.40;;;3.80;99.90;;;;;;5106364;28;20054;-66
2022/01/31 02:03:37;;;;;;;28.02;11.68;;;3.80;99.90;;;;;;5087944;28;20052;-66
2022/01/31 02:06:07;;;;;;;27.52;13.00;;;3.80;99.90;;;;;;5088724;28;20044;-65
2022/01/31 02:08:41;;;;;;;33.90;12.45;;;3.70;99.90;;;;;;5087712;28;20047;-65
2022/01/31 02:11:08;;;;;;;33.33;14.65;;;3.70;99.90;;;;;;5087454;28;20051;-65
2022/01/31 02:13:36;;;;;;;22.23;10.32;;;3.60;99.90;;;;;;5077323;28;20048;-65
2022/01/31 02:16:03;;;;;;;26.45;14.50;;;3.70;99.90;;;;;;5085606;28;20064;-66
2022/01/31 02:18:30;;;;;;;23.65;11.85;;;3.70;99.90;;;;;;5067780;28;20048;-66
2022/01/31 02:20:56;;;;;;;26.08;14.85;;;3.70;99.90;;;;;;5080266;28;20063;-65
2022/01/31 02:23:22;;;;;;;24.00;13.85;;;3.50;99.90;;;;;;5073734;28;20052;-65
2022/01/31 02:25:57;;;;;;;25.52;14.80;;;3.50;99.90;;;;;;5076892;28;20044;-65
2022/01/31 02:28:25;;;;;;;24.05;14.45;;;3.60;99.90;;;;;;5067935;28;20059;-66
2022/01/31 02:30:52;;;;;;;20.80;13.75;;;3.40;99.90;;;;;;5074729;28;20127;-66
2022/01/31 02:33:18;;;;;;;22.70;14.82;;;3.40;99.90;;;;;;5090328;28;20088;-65
2022/01/31 02:35:46;;;;;;;25.65;16.15;;;3.50;99.90;;;;;;5067897;28;20050;-65
2022/01/31 02:38:12;;;;;;;31.45;16.05;;;3.30;99.90;;;;;;5056806;28;20059;-65
2022/01/31 02:40:38;;;;;;;27.75;16.10;;;3.30;99.90;;;;;;5088680;28;20055;-65
2022/01/31 02:43:04;;;;;;;29.75;16.92;;;3.30;99.90;;;;;;5065531;28;20051;-65
2022/01/31 02:45:30;;;;;;;31.27;18.00;;;3.30;99.90;;;;;;5066756;28;20079;-65
2022/01/31 02:47:58;;;;;;;33.13;17.52;;;3.30;99.90;;;;;;5084517;28;20075;-65
2022/01/31 02:50:25;;;;;;;28.48;16.77;;;3.30;99.90;;;;;;5072064;28;20127;-65
2022/01/31 02:53:00;;;;;;;31.75;17.15;;;3.30;99.90;;;;;;5075129;28;20078;-65
2022/01/31 02:55:26;;;;;;;27.33;17.70;;;3.20;99.90;;;;;;5084419;28;20045;-65
2022/01/31 02:57:52;;;;;;;27.40;17.42;;;3.20;99.90;;;;;;5084153;28;20044;-65
2022/01/31 03:00:17;;;;;;;30.02;16.65;;;3.20;99.90;;;;;;5091627;28;20051;-65
2022/01/31 03:02:43;;;;;;;28.92;15.98;;;3.20;99.90;;;;;;5067464;28;20063;-65
2022/01/31 03:05:09;;;;;;;29.73;16.20;;;3.30;99.90;;;;;;5084455;28;20048;-65
2022/01/31 03:07:36;;;;;;;25.05;15.48;;;3.30;99.90;;;;;;5071453;28;20051;-65
2022/01/31 03:10:02;;;;;;;23.05;14.00;;;3.40;99.90;;;;;;5089813;28;20062;-65
2022/01/31 03:12:29;;;;;;;21.77;14.15;;;3.50;99.90;;;;;;5084237;28;20048;-66
2022/01/31 03:14:55;;;;;;;20.98;13.63;;;3.60;99.90;;;;;;5084561;28;20051;-65
2022/01/31 03:17:20;;;;;;;20.85;12.50;;;3.50;99.90;;;;;;5048983;28;20029;-66
2022/01/31 03:19:52;;;;;;;18.17;12.05;;;3.70;99.90;;;;;;5058596;28;20057;-65
2022/01/31 03:22:19;;;;;;;16.58;12.25;;;3.50;99.90;;;;;;5077150;28;20036;-65
2022/01/31 03:24:46;;;;;;;15.63;11.35;;;3.40;99.90;;;;;;5067119;28;20091;-65
2022/01/31 03:27:11;;;;;;;17.40;10.80;;;3.40;99.90;;;;;;5081249;28;20221;-66
2022/01/31 03:29:37;;;;;;;14.85;10.38;;;3.40;99.90;;;;;;5064181;28;20416;-65
2022/01/31 03:32:03;;;;;;;14.25;10.10;;;3.30;99.90;;;;;;5069939;28;20047;-65
2022/01/31 03:34:29;;;;;;;16.05;10.77;;;3.30;99.90;;;;;;5065430;28;20057;-66
2022/01/31 03:36:55;;;;;;;16.60;11.27;;;3.40;99.90;;;;;;5083882;28;20127;-65
2022/01/31 03:39:21;;;;;;;17.02;11.27;;;3.30;99.90;;;;;;5069279;28;20094;-65
2022/01/31 03:41:46;;;;;;;15.57;10.02;;;3.30;99.90;;;;;;5066137;28;20106;-66
2022/01/31 03:44:12;;;;;;;17.20;11.85;;;3.40;99.90;;;;;;5077765;28;20041;-66
2022/01/31 03:46:38;;;;;;;16.75;10.80;;;3.50;99.90;;;;;;5082813;28;20138;-65
2022/01/31 03:49:04;;;;;;;16.42;11.30;;;3.50;99.90;;;;;;5045103;28;20128;-65
2022/01/31 03:51:30;;;;;;;16.33;11.05;;;3.60;99.90;;;;;;5083901;28;20098;-65
2022/01/31 03:53:56;;;;;;;15.70;11.00;;;3.50;99.90;;;;;;5080191;28;20037;-65
2022/01/31 03:56:22;;;;;;;18.45;11.45;;;3.60;99.90;;;;;;5064280;28;20531;-65
2022/01/31 03:58:48;;;;;;;17.58;11.60;;;3.80;99.90;;;;;;5064701;28;20092;-65
2022/01/31 04:01:14;;;;;;;17.23;11.18;;;3.80;99.90;;;;;;5080584;28;20048;-65
2022/01/31 04:03:40;;;;;;;19.13;11.95;;;3.90;99.90;;;;;;5078079;28;20048;-65
2022/01/31 04:06:06;;;;;;;23.80;12.73;;;3.90;99.90;;;;;;5083498;28;20040;-65
2022/01/31 04:08:32;;;;;;;19.38;10.85;;;4.00;99.90;;;;;;5056539;28;20041;-65
2022/01/31 04:10:57;;;;;;;20.20;10.68;;;4.10;99.90;;;;;;5058174;28;20546;-65
2022/01/31 04:13:26;;;;;;;22.40;11.15;;;4.10;99.90;;;;;;5071850;28;20075;-65
2022/01/31 04:15:52;;;;;;;20.00;9.57;;;4.20;99.90;;;;;;5076445;28;20060;-65
2022/01/31 04:18:18;;;;;;;21.40;10.23;;;4.40;99.90;;;;;;5065086;28;20129;-65
2022/01/31 04:20:43;;;;;;;27.63;9.32;;;4.40;99.90;;;;;;5066008;28;20078;-65
2022/01/31 04:23:15;;;;;;;23.23;8.68;;;4.50;99.90;;;;;;5057928;28;20044;-65
2022/01/31 04:26:08;;;;;;;19.90;7.95;;;4.60;99.90;;;;;;5051005;28;20075;-65
2022/01/31 04:28:31;;;;;;;31.55;7.55;;;4.60;99.90;;;;;;5058938;28;20053;-65
2022/01/31 04:31:00;;;;;;;26.83;7.45;;;4.80;99.90;;;;;;5077780;28;20516;-65
2022/01/31 04:33:28;;;;;;;19.48;5.93;;;4.90;99.90;;;;;;5062791;28;20044;-65
2022/01/31 04:35:54;;;;;;;23.20;4.85;;;5.00;99.90;;;;;;5067925;28;20048;-65
2022/01/31 04:38:20;;;;;;;17.63;3.88;;;5.10;99.90;;;;;;5060336;28;20051;-66
2022/01/31 04:40:46;;;;;;;14.57;3.20;;;5.20;99.90;;;;;;5060136;28;20131;-65
2022/01/31 04:43:13;;;;;;;12.05;2.50;;;5.40;99.90;;;;;;5061221;28;20087;-65
2022/01/31 04:45:46;;;;;;;19.02;3.25;;;5.40;99.90;;;;;;5083433;28;20104;-65
2022/01/31 04:48:11;;;;;;;15.80;3.05;;;5.40;99.90;;;;;;5080382;28;20075;-65
2022/01/31 04:50:37;;;;;;;17.23;3.22;;;5.30;99.90;;;;;;5070839;28;20448;-65
2022/01/31 04:53:03;;;;;;;13.77;2.10;;;5.10;99.90;;;;;;5073564;28;20111;-65
2022/01/31 04:55:30;;;;;;;11.82;2.60;;;5.20;99.90;;;;;;5078788;28;20045;-65
2022/01/31 04:57:56;;;;;;;12.05;2.95;;;5.20;99.90;;;;;;5096784;28;20040;-65
2022/01/31 05:00:22;;;;;;;19.42;2.50;;;5.20;99.90;;;;;;5084832;28;20055;-65
2022/01/31 05:02:48;;;;;;;15.50;3.17;;;5.10;99.90;;;;;;5073176;28;20409;-65
2022/01/31 05:05:13;;;;;;;21.85;3.05;;;5.10;99.90;;;;;;5081180;28;20049;-65
2022/01/31 05:07:39;;;;;;;12.75;2.42;;;5.10;99.90;;;;;;5083741;28;20105;-65
2022/01/31 05:10:05;;;;;;;24.40;3.10;;;5.00;99.90;;;;;;5079637;28;20047;-65
2022/01/31 05:12:31;;;;;;;17.95;3.08;;;5.10;99.90;;;;;;5062543;28;20051;-65
2022/01/31 05:14:57;;;;;;;15.15;2.65;;;5.10;99.90;;;;;;5066200;28;20052;-65
2022/01/31 05:17:22;;;;;;;24.42;3.75;;;4.90;99.90;;;;;;5084329;28;20065;-65
2022/01/31 05:19:48;;;;;;;15.27;2.80;;;5.00;99.90;;;;;;5085764;28;20044;-65
2022/01/31 05:22:14;;;;;;;17.15;3.00;;;5.10;99.90;;;;;;5068065;28;20045;-65
2022/01/31 05:24:39;;;;;;;17.38;2.85;;;5.00;99.90;;;;;;5064820;28;20128;-65
2022/01/31 05:27:05;;;;;;;25.83;4.40;;;5.00;99.90;;;;;;5082167;28;20043;-65
2022/01/31 05:29:31;;;;;;;20.50;4.13;;;5.00;99.90;;;;;;5067868;28;20112;-65
2022/01/31 05:31:56;;;;;;;24.75;3.60;;;5.00;99.90;;;;;;5057951;28;20109;-66
2022/01/31 05:34:24;;;;;;;21.83;3.53;;;5.10;99.90;;;;;;5043359;28;20049;-65
2022/01/31 05:36:54;;;;;;;25.75;3.58;;;5.10;99.90;;;;;;5084492;28;20040;-67
2022/01/31 05:39:22;;;;;;;18.63;2.70;;;5.20;99.90;;;;;;5065086;28;20060;-62
2022/01/31 05:41:47;;;;;;;13.63;2.00;;;5.00;99.90;;;;;;5074224;28;20171;-63
2022/01/31 05:44:13;;;;;;;11.48;2.63;;;4.90;99.90;;;;;;5062667;28;20084;-63
2022/01/31 05:46:39;;;;;;;15.13;2.42;;;4.90;99.90;;;;;;5056129;28;20053;-63
2022/01/31 05:49:04;;;;;;;9.00;1.45;;;4.80;99.90;;;;;;5050889;28;20238;-66
2022/01/31 05:51:30;;;;;;;9.20;1.63;;;4.80;99.90;;;;;;5042784;28;20055;-66
2022/01/31 05:53:56;;;;;;;6.93;2.00;;;4.80;99.90;;;;;;5070507;28;20456;-67
2022/01/31 05:56:22;;;;;;;6.85;1.30;;;4.50;99.90;;;;;;5059357;28;20075;-65
2022/01/31 05:58:49;;;;;;;15.70;1.80;;;4.50;99.90;;;;;;5070554;28;20074;-65
2022/01/31 06:01:16;;;;;;;10.80;1.90;;;4.50;99.90;;;;;;5066789;28;20041;-66
2022/01/31 06:03:42;;;;;;;15.38;2.47;;;4.60;99.90;;;;;;5049228;28;20202;-67
2022/01/31 06:06:08;;;;;;;12.52;2.85;;;4.40;99.90;;;;;;5077543;28;20436;-67
2022/01/31 06:08:33;;;;;;;11.27;1.92;;;4.40;99.90;;;;;;5081350;28;20047;-66
2022/01/31 06:10:59;;;;;;;13.10;1.45;;;4.40;99.90;;;;;;5083101;28;20049;-66
2022/01/31 06:13:29;;;;;;;11.68;1.77;;;4.50;99.90;;;;;;5091792;28;20138;-64
2022/01/31 06:15:55;;;;;;;10.38;1.55;;;4.40;99.90;;;;;;5089386;28;20385;-67
2022/01/31 06:18:20;;;;;;;5.47;1.42;;;4.40;99.90;;;;;;5090853;28;20083;-66
2022/01/31 06:20:46;;;;;;;14.38;1.98;;;4.30;99.90;;;;;;5079248;28;20124;-65
2022/01/31 06:23:12;;;;;;;9.30;1.27;;;4.40;99.90;;;;;;5097469;28;20059;-65
2022/01/31 06:25:39;;;;;;;7.68;1.50;;;4.40;99.90;;;;;;5068985;28;20774;-66
2022/01/31 06:28:06;;;;;;;13.27;2.45;;;4.40;99.90;;;;;;5074559;28;20044;-66
2022/01/31 06:30:32;;;;;;;9.10;1.60;;;4.20;99.90;;;;;;5079075;28;20064;-65
2022/01/31 06:32:58;;;;;;;5.47;1.20;;;4.30;99.90;;;;;;5044338;28;20040;-66
2022/01/31 06:35:24;;;;;;;7.93;1.50;;;4.50;99.90;;;;;;5066515;28;20127;-66
2022/01/31 06:37:51;;;;;;;8.35;1.60;;;4.30;99.90;;;;;;5076095;28;20071;-66
2022/01/31 06:40:17;;;;;;;8.88;1.50;;;4.50;99.90;;;;;;5083045;28;20047;-66
2022/01/31 06:42:43;;;;;;;12.25;1.80;;;4.50;99.90;;;;;;5070828;28;20048;-66
2022/01/31 06:45:09;;;;;;;5.30;1.13;;;4.40;99.90;;;;;;5092300;28;20044;-66
2022/01/31 06:47:35;;;;;;;10.35;1.52;;;4.60;99.90;;;;;;5084162;28;20052;-66
2022/01/31 06:50:04;;;;;;;9.68;1.55;;;4.30;99.90;;;;;;5076168;28;20048;-66
2022/01/31 06:52:34;;;;;;;14.40;2.55;;;4.50;99.90;;;;;;5079894;28;20063;-65
2022/01/31 06:55:03;;;;;;;8.70;1.40;;;4.30;99.90;;;;;;5078752;28;20356;-66
2022/01/31 06:57:33;;;;;;;9.52;1.60;;;4.60;99.90;;;;;;5068393;28;20383;-67
2022/01/31 07:00:07;;;;;;;9.00;3.20;;;4.50;99.90;;;;;;5099478;28;20051;-64
2022/01/31 07:02:34;;;;;;;8.70;1.60;;;4.60;99.90;;;;;;5063328;28;20467;-62
2022/01/31 07:05:00;;;;;;;13.43;2.25;;;4.40;99.90;;;;;;5072044;28;20220;-63
2022/01/31 07:07:27;;;;;;;6.80;1.67;;;4.60;99.90;;;;;;5066175;28;20077;-63
2022/01/31 07:09:53;;;;;;;14.95;2.03;;;4.60;99.90;;;;;;5070683;28;20068;-62
2022/01/31 07:12:22;;;;;;;14.93;1.75;;;4.60;99.90;;;;;;5074924;28;20052;-63
2022/01/31 07:14:48;;;;;;;10.93;2.38;;;4.70;99.90;;;;;;5070405;28;20053;-63
2022/01/31 07:17:14;;;;;;;17.63;1.92;;;4.80;99.90;;;;;;5063074;28;20632;-62
2022/01/31 07:19:40;;;;;;;12.30;2.55;;;4.70;99.90;;;;;;5053890;28;20040;-63
2022/01/31 07:22:10;;;;;;;13.77;1.73;;;4.70;99.90;;;;;;5054923;28;20083;-63
2022/01/31 07:27:03;;;;;;;18.60;2.58;;;4.70;99.90;;;;;;5052555;28;20055;-62
2022/01/31 07:29:31;;;;;;;12.98;2.53;;;4.80;99.90;;;;;;5047183;28;20053;-62
2022/01/31 07:31:59;;;;;;;14.13;2.05;;;4.90;99.90;;;;;;5037779;28;20120;-63
2022/01/31 07:34:25;;;;;;;22.02;2.45;;;4.80;99.90;;;;;;5060526;28;20047;-63
2022/01/31 07:36:52;;;;;;;16.55;2.95;;;4.90;99.90;;;;;;5056989;28;20556;-63
2022/01/31 07:39:18;;;;;;;17.55;2.67;;;4.90;99.90;;;;;;5047706;28;20069;-63
2022/01/31 07:41:46;;;;;;;8.98;2.65;;;4.90;99.90;;;;;;5057139;28;20075;-62
2022/01/31 07:44:12;;;;;;;15.48;2.10;;;4.70;99.90;;;;;;5056711;28;20263;-63
2022/01/31 07:46:38;;;;;;;9.65;1.60;;;4.90;99.90;;;;;;5062133;28;20558;-62
2022/01/31 07:49:05;;;;;;;11.15;2.38;;;4.90;99.90;;;;;;5048602;28;20710;-63
2022/01/31 07:51:30;;;;;;;7.70;1.50;;;4.80;99.90;;;;;;5057985;28;20823;-62
2022/01/31 07:53:56;;;;;;;10.25;1.40;;;4.90;99.90;;;;;;5045400;28;20053;-64
2022/01/31 07:56:22;;;;;;;16.60;2.67;;;4.90;99.90;;;;;;5073586;28;20051;-62
2022/01/31 07:58:48;;;;;;;12.90;1.70;;;4.90;99.90;;;;;;5053631;28;20118;-62
2022/01/31 08:01:14;;;;;;;12.02;1.90;;;4.70;99.90;;;;;;5061421;28;20125;-62
2022/01/31 08:03:40;;;;;;;9.02;1.90;;;4.80;99.90;;;;;;5052724;28;20053;-63
2022/01/31 08:06:06;;;;;;;12.23;2.05;;;4.70;99.90;;;;;;5054565;28;20153;-62
2022/01/31 08:08:34;;;;;;;14.00;1.67;;;4.80;99.90;;;;;;5068079;28;20515;-62
2022/01/31 08:11:02;;;;;;;17.52;3.65;;;4.90;99.90;;;;;;5061415;28;20203;-62
2022/01/31 08:13:28;;;;;;;10.75;1.73;;;4.80;99.90;;;;;;5065575;28;20087;-62
2022/01/31 08:18:33;;;;;;;8.13;2.00;;;4.70;99.90;;;;;;5077041;28;20119;-62
2022/01/31 08:20:59;;;;;;;14.82;2.17;;;4.70;99.90;;;;;;5083303;28;20043;-63
2022/01/31 08:23:25;;;;;;;14.18;1.90;;;4.70;99.90;;;;;;5094233;28;20041;-63
2022/01/31 08:25:51;;;;;;;11.32;2.25;;;4.70;99.90;;;;;;5070227;28;20048;-63
2022/01/31 08:28:19;;;;;;;9.95;1.50;;;4.90;99.90;;;;;;5087986;28;20055;-63
2022/01/31 08:30:55;;;;;;;12.27;2.33;;;4.90;99.90;;;;;;5069508;28;20121;-63
2022/01/31 08:33:40;;;;;;;14.75;2.25;;;5.00;99.90;;;;;;5070001;28;20079;-63
2022/01/31 08:36:07;;;;;;;15.05;1.98;;;4.90;99.90;;;;;;5063974;28;20048;-63
2022/01/31 08:38:39;;;;;;;14.02;1.85;;;5.00;99.90;;;;;;5076704;28;20436;-63
2022/01/31 08:41:07;;;;;;;11.32;1.70;;;4.90;99.90;;;;;;5069789;28;20044;-64
2022/01/31 08:43:37;;;;;;;13.20;1.85;;;5.00;99.90;;;;;;5107454;28;20044;-63
2022/01/31 08:46:04;;;;;;;20.38;2.10;;;5.20;99.90;;;;;;5067655;28;20075;-63
2022/01/31 08:48:30;;;;;;;9.15;1.98;;;5.20;99.90;;;;;;5075873;28;20056;-63
2022/01/31 08:50:57;;;;;;;11.57;1.83;;;5.10;99.90;;;;;;5074227;28;20080;-63
2022/01/31 08:53:23;;;;;;;10.93;1.75;;;5.10;99.90;;;;;;5071401;28;20397;-63
2022/01/31 08:55:52;;;;;;;6.85;1.67;;;5.20;99.90;;;;;;5079642;28;20046;-63
2022/01/31 08:58:18;;;;;;;13.52;1.83;;;5.10;99.90;;;;;;5083935;28;20051;-63
2022/01/31 09:00:49;;;;;;;8.80;1.90;;;5.00;99.90;;;;;;5081740;28;20055;-63
2022/01/31 09:05:42;;;;;;;12.38;1.65;;;5.00;99.90;;;;;;5077016;28;20091;-63
2022/01/31 09:08:07;;;;;;;12.52;1.83;;;5.00;99.90;;;;;;5076428;28;20089;-63
2022/01/31 09:10:34;;;;;;;7.80;1.35;;;5.30;99.90;;;;;;5083787;28;20497;-63
2022/01/31 09:13:00;;;;;;;9.85;1.77;;;5.10;99.90;;;;;;5074250;28;20059;-62
2022/01/31 09:15:26;;;;;;;6.95;1.60;;;5.20;99.90;;;;;;5085727;28;20048;-62
2022/01/31 09:17:52;;;;;;;12.18;2.03;;;5.20;99.90;;;;;;5071874;28;20052;-63
2022/01/31 09:20:18;;;;;;;3.90;1.23;;;5.50;99.90;;;;;;5092323;28;20043;-63
2022/01/31 09:22:44;;;;;;;8.40;1.75;;;5.40;99.90;;;;;;5112651;27;20048;-62
2022/01/31 09:25:11;;;;;;;6.20;1.45;;;5.40;99.90;;;;;;5087746;28;20054;-62
2022/01/31 09:27:37;;;;;;;12.13;1.75;;;5.50;99.90;;;;;;5082131;28;20050;-63
2022/01/31 09:30:04;;;;;;;8.98;1.90;;;5.70;99.90;;;;;;5103895;28;20347;-63
2022/01/31 09:32:30;;;;;;;6.88;1.50;;;5.90;99.90;;;;;;5045357;28;20590;-63
2022/01/31 09:34:56;;;;;;;12.07;2.45;;;5.70;99.90;;;;;;5054939;28;20377;-64
2022/01/31 09:37:21;;;;;;;11.82;1.60;;;5.90;99.90;;;;;;5078677;28;20136;-63
2022/01/31 09:39:51;;;;;;;12.88;2.00;;;5.90;99.90;;;;;;5091454;28;20039;-64
2022/01/31 09:42:33;;;;;;;18.92;3.03;;;6.00;99.90;;;;;;5082074;28;20048;-63
2022/01/31 09:50:11;;;;;;;11.00;1.90;;;6.20;99.90;;;;;;5089317;28;20051;-62
2022/01/31 09:52:37;;;;;;;10.57;1.95;;;6.40;99.90;;;;;;5094015;28;20063;-62
2022/01/31 09:55:04;;;;;;;9.02;1.65;;;6.40;99.90;;;;;;5062175;28;20048;-62
2022/01/31 09:57:29;;;;;;;21.38;2.30;;;6.10;99.90;;;;;;5078991;28;20043;-62
2022/01/31 09:59:55;;;;;;;9.35;2.28;;;6.10;99.90;;;;;;5081724;27;20078;-62
2022/01/31 10:02:21;;;;;;;8.60;1.67;;;6.40;99.90;;;;;;5108495;28;20047;-61
2022/01/31 10:04:48;;;;;;;11.38;1.80;;;6.30;99.90;;;;;;5088588;28;20051;-64
2022/01/31 10:07:15;;;;;;;8.93;1.23;;;6.30;99.90;;;;;;5107979;28;20480;-61
2022/01/31 10:09:45;;;;;;;9.02;1.95;;;6.60;99.90;;;;;;5065438;28;20076;-62
2022/01/31 10:17:44;;;;;;;7.25;1.20;;;6.40;99.90;;;;;;5071512;28;20137;-62
2022/01/31 10:20:31;;;;;;;8.52;1.58;;;6.60;99.90;;;;;;5073627;28;20325;-62
2022/01/31 10:23:11;;;;;;;10.40;1.45;;;6.40;99.90;;;;;;5067204;28;20060;-62
2022/01/31 10:25:38;;;;;;;17.35;3.35;;;6.60;99.90;;;;;;5076600;28;20044;-62
2022/01/31 10:28:15;;;;;;;7.55;1.48;;;6.70;99.90;;;;;;5052988;28;20546;-62
2022/01/31 10:30:43;;;;;;;8.23;1.70;;;6.70;99.90;;;;;;5071544;28;20045;-62
2022/01/31 10:33:09;;;;;;;12.57;1.73;;;6.80;99.90;;;;;;5077998;28;20444;-62
2022/01/31 10:35:38;;;;;;;11.48;1.50;;;6.90;99.90;;;;;;5074012;28;20040;-62
2022/01/31 10:38:10;;;;;;;9.30;1.90;;;6.80;99.90;;;;;;5063436;28;20048;-62
2022/01/31 10:50:40;;;;;;;12.27;1.60;;;7.10;99.90;;;;;;5086046;28;20416;-62
2022/01/31 10:52:00;;;;;;;16.02;1.58;;;6.90;99.90;;;;;;5081020;28;20059;-63
2022/01/31 10:54:38;;;;;;;15.18;2.15;;;7.20;99.90;;;;;;5084490;28;20044;-62
2022/01/31 10:57:07;;;;;;;8.50;1.48;;;7.10;99.90;;;;;;5068861;28;20040;-63
2022/01/31 10:59:37;;;;;;;12.65;1.70;;;7.30;99.90;;;;;;5083739;28;20044;-62
2022/01/31 11:02:06;;;;;;;11.05;2.45;;;7.40;99.90;;;;;;5075856;28;20077;-62
2022/01/31 11:04:39;;;;;;;8.95;1.40;;;7.30;99.90;;;;;;5083495;28;20119;-63
2022/01/31 11:07:12;;;;;;;8.45;1.40;;;7.30;99.90;;;;;;5068604;28;20051;-62
2022/01/31 11:09:40;;;;;;;8.85;1.70;;;7.20;99.90;;;;;;5053492;28;20056;-62
2022/01/31 11:12:07;;;;;;;8.45;1.40;;;7.40;99.90;;;;;;5065238;28;20111;-64
2022/01/31 11:14:37;;;;;;;11.45;1.52;;;7.40;99.90;;;;;;5059668;28;20109;-63
2022/01/31 11:17:16;;;;;;;12.23;2.45;;;7.50;99.90;;;;;;5054829;28;20247;-63
2022/01/31 11:19:45;;;;;;;9.75;1.35;;;7.50;99.90;;;;;;5059003;28;20052;-63
2022/01/31 11:22:13;;;;;;;10.85;2.42;;;7.30;99.90;;;;;;5077812;28;20044;-63
2022/01/31 11:24:49;;;;;;;15.75;2.38;;;7.40;99.90;;;;;;5056408;28;20059;-63
2022/01/31 11:27:18;;;;;;;10.95;1.75;;;7.20;99.90;;;;;;5074052;28;20108;-63
2022/01/31 11:29:47;;;;;;;11.57;1.85;;;7.20;99.90;;;;;;5074535;28;20059;-63
2022/01/31 11:32:13;;;;;;;6.47;1.60;;;7.20;99.90;;;;;;5069172;28;20044;-63
2022/01/31 11:34:41;;;;;;;9.63;1.67;;;7.50;99.90;;;;;;5068781;28;20566;-63
2022/01/31 11:37:16;;;;;;;10.57;1.60;;;7.60;99.90;;;;;;5084510;28;20055;-63
2022/01/31 11:39:48;;;;;;;12.50;2.00;;;7.80;99.90;;;;;;5049886;28;20045;-63
2022/01/31 11:42:16;;;;;;;9.82;2.53;;;7.90;99.90;;;;;;5066128;28;20052;-62
2022/01/31 11:45:07;;;;;;;13.98;2.60;;;8.00;99.90;;;;;;5078361;28;20119;-62
2022/01/31 11:47:36;;;;;;;8.35;1.70;;;8.10;99.90;;;;;;5049919;28;20529;-62
2022/01/31 11:50:06;;;;;;;10.90;1.40;;;8.00;99.90;;;;;;5062727;28;20433;-63
2022/01/31 11:52:48;;;;;;;9.75;1.73;;;8.30;99.90;;;;;;5072535;28;20041;-63
2022/01/31 11:55:19;;;;;;;8.73;2.20;;;8.20;99.90;;;;;;5033228;28;20118;-63
2022/01/31 11:57:48;;;;;;;12.35;1.67;;;8.20;99.90;;;;;;5071672;28;20048;-62
2022/01/31 12:00:16;;;;;;;10.25;1.75;;;8.40;99.90;;;;;;5058698;28;20044;-63
2022/01/31 12:02:49;;;;;;;7.63;1.83;;;8.60;99.90;;;;;;5046669;28;20236;-63
2022/01/31 12:05:36;;;;;;;10.07;2.13;;;8.40;99.90;;;;;;5060075;28;20067;-62
2022/01/31 12:08:13;;;;;;;8.98;2.38;;;8.40;99.90;;;;;;5039901;28;20121;-63
2022/01/31 12:10:44;;;;;;;9.48;1.58;;;8.40;99.90;;;;;;5077810;28;20048;-62
2022/01/31 12:13:49;;;;;;;11.05;1.83;;;8.40;99.90;;;;;;5051780;28;20045;-63
2022/01/31 12:19:18;;;;;;;14.68;2.00;;;8.30;99.90;;;;;;5050822;28;20080;-62
2022/01/31 12:22:00;;;;;;;9.05;1.50;;;8.20;99.90;;;;;;5056443;28;20056;-62
2022/01/31 12:24:27;;;;;;;11.48;2.25;;;8.10;99.90;;;;;;5078140;28;20044;-63
2022/01/31 12:27:05;;;;;;;13.60;2.20;;;8.10;99.90;;;;;;5044892;28;20049;-62
2022/01/31 12:29:33;;;;;;;11.20;1.75;;;8.10;99.90;;;;;;5081254;28;20052;-63
2022/01/31 12:32:21;;;;;;;19.13;2.17;;;8.40;99.90;;;;;;5081432;28;20127;-62
2022/01/31 12:34:58;;;;;;;12.10;2.00;;;8.50;99.90;;;;;;5079440;28;20078;-62
2022/01/31 12:37:28;;;;;;;13.38;2.33;;;8.50;99.90;;;;;;5071579;28;20613;-62
2022/01/31 12:40:33;;;;;;;18.10;2.65;;;8.30;99.90;;;;;;5067107;28;20400;-63
2022/01/31 12:45:51;;;;;;;17.48;2.80;;;8.60;99.90;;;;;;5031060;28;20125;-62
2022/01/31 12:48:23;;;;;;;16.90;2.90;;;8.50;99.90;;;;;;5021468;28;20049;-63
2022/01/31 12:50:48;;;;;;;15.57;2.28;;;8.50;99.90;;;;;;5028495;28;20049;-63
2022/01/31 12:53:24;;;;;;;16.15;2.40;;;8.70;99.90;;;;;;5031320;28;20056;-62
2022/01/31 12:56:03;;;;;;;12.82;2.22;;;8.60;99.90;;;;;;5031668;28;20070;-62
2022/01/31 12:58:37;;;;;;;15.15;2.72;;;8.70;99.90;;;;;;5030247;28;20132;-63
2022/01/31 13:01:13;;;;;;;11.48;1.80;;;8.60;99.90;;;;;;5036262;28;20045;-63
2022/01/31 13:03:41;;;;;;;16.10;2.15;;;8.80;99.90;;;;;;5014288;28;20045;-62
2022/01/31 13:06:54;;;;;;;15.27;2.78;;;8.60;99.90;;;;;;5054074;28;20067;-64
2022/01/31 13:09:29;;;;;;;18.02;2.03;;;8.50;99.90;;;;;;5020723;28;20060;-63
2022/01/31 13:12:05;;;;;;;19.60;3.63;;;8.50;99.90;;;;;;5033374;28;20530;-62
2022/01/31 13:14:33;;;;;;;15.85;2.67;;;8.40;99.90;;;;;;5034678;28;20048;-63
2022/01/31 13:17:10;;;;;;;14.57;2.58;;;8.40;99.90;;;;;;5071797;28;20072;-62
2022/01/31 13:19:38;;;;;;;16.55;3.10;;;8.30;99.90;;;;;;5049482;28;20067;-63
2022/01/31 13:22:12;;;;;;;17.45;2.35;;;8.40;99.90;;;;;;5075880;28;20048;-63
2022/01/31 13:24:39;;;;;;;18.70;3.03;;;8.40;99.90;;;;;;5065332;28;20127;-63
2022/01/31 13:27:08;;;;;;;12.45;2.63;;;8.30;99.90;;;;;;5091742;28;20172;-63